createdAt,value
2022-12-03T00:00:40.354Z,4.30
2022-12-03T00:03:26.063Z,4.30
2022-12-03T00:06:12.356Z,4.30
2022-12-03T00:08:59.563Z,4.40
2022-12-03T00:11:44.972Z,4.10
2022-12-03T00:14:30.637Z,4.10
2022-12-03T00:17:16.232Z,4.00
2022-12-03T00:20:01.907Z,4.20
2022-12-03T00:22:48.025Z,4.30
2022-12-03T00:25:36.095Z,4.30
2022-12-03T00:28:21.797Z,4.40
2022-12-03T00:31:07.534Z,4.60
2022-12-03T00:33:53.071Z,4.30
2022-12-03T00:36:38.725Z,4.60
2022-12-03T00:39:24.477Z,4.60
2022-12-03T00:42:11.598Z,4.70
2022-12-03T00:44:57.307Z,4.70
2022-12-03T00:47:43.251Z,5.00
2022-12-03T00:50:29.054Z,5.00
2022-12-03T00:53:15.098Z,5.10
2022-12-03T00:56:02.183Z,5.30
2022-12-03T00:58:49.502Z,5.30
2022-12-03T01:01:35.196Z,5.10
2022-12-03T01:04:21.005Z,5.40
2022-12-03T01:07:07.003Z,5.20
2022-12-03T01:09:53.684Z,5.40
2022-12-03T01:12:39.556Z,5.20
2022-12-03T01:15:27.061Z,4.70
2022-12-03T01:18:12.465Z,4.70
2022-12-03T01:20:58.424Z,4.90
2022-12-03T01:23:44.287Z,4.60
2022-12-03T01:26:30.105Z,4.60
2022-12-03T01:29:15.898Z,4.70
2022-12-03T01:32:19.510Z,4.50
2022-12-03T01:35:05.668Z,4.90
2022-12-03T01:37:51.419Z,4.90
2022-12-03T01:40:37.037Z,4.90
2022-12-03T01:43:22.813Z,4.80
2022-12-03T01:46:09.076Z,5.00
2022-12-03T01:48:56.197Z,5.10
2022-12-03T01:51:41.747Z,5.50
2022-12-03T01:54:28.665Z,5.50
2022-12-03T01:59:50.721Z,5.20
2022-12-03T02:02:36.548Z,4.60
2022-12-03T02:05:27.040Z,4.50
2022-12-03T02:08:26.529Z,4.40
2022-12-03T02:11:16.745Z,4.40
2022-12-03T02:14:03.925Z,4.70
2022-12-03T02:16:52.994Z,4.60
2022-12-03T02:19:39.483Z,4.60
2022-12-03T02:22:30.025Z,4.50
2022-12-03T02:25:18.155Z,4.50
2022-12-03T02:28:05.420Z,4.70
2022-12-03T02:30:51.371Z,4.90
2022-12-03T02:33:38.350Z,4.60
2022-12-03T02:36:24.186Z,4.40
2022-12-03T02:39:09.729Z,4.40
2022-12-03T02:42:15.272Z,4.70
2022-12-03T02:45:05.448Z,4.80
2022-12-03T02:47:54.214Z,4.90
2022-12-03T02:50:41.741Z,3.90
2022-12-03T02:53:29.220Z,3.80
2022-12-03T02:56:16.965Z,4.00
2022-12-03T02:59:05.370Z,4.20
2022-12-03T03:01:51.116Z,4.40
2022-12-03T03:04:36.692Z,4.60
2022-12-03T03:07:22.620Z,4.40
2022-12-03T03:10:09.725Z,4.50
2022-12-03T03:12:55.550Z,4.80
2022-12-03T03:15:42.847Z,4.60
2022-12-03T03:18:28.502Z,4.60
2022-12-03T03:21:14.148Z,4.90
2022-12-03T03:23:59.608Z,4.70
2022-12-03T03:26:45.604Z,4.50
2022-12-03T03:29:31.180Z,4.50
2022-12-03T03:32:18.511Z,4.50
2022-12-03T03:35:04.501Z,4.70
2022-12-03T03:37:50.229Z,5.00
2022-12-03T03:40:37.317Z,4.70
2022-12-03T03:43:23.591Z,4.40
2022-12-03T03:46:09.668Z,4.20
2022-12-03T03:48:56.957Z,4.10
2022-12-03T03:51:42.403Z,4.00
2022-12-03T03:54:27.798Z,4.10
2022-12-03T03:57:13.512Z,4.40
2022-12-03T03:59:59.907Z,4.00
2022-12-03T04:02:45.392Z,4.00
2022-12-03T04:05:32.458Z,4.30
2022-12-03T04:08:18.026Z,4.30
2022-12-03T04:11:22.281Z,4.50
2022-12-03T04:14:08.777Z,4.40
2022-12-03T04:16:54.842Z,4.80
2022-12-03T04:19:40.644Z,5.00
2022-12-03T04:22:42.553Z,4.90
2022-12-03T04:26:03.388Z,5.10
2022-12-03T04:28:51.547Z,4.70
2022-12-03T04:31:56.427Z,4.50
2022-12-03T04:35:00.311Z,4.60
2022-12-03T04:37:47.050Z,4.30
2022-12-03T04:40:51.180Z,4.40
2022-12-03T04:43:59.441Z,4.70
2022-12-03T04:46:44.997Z,5.10
2022-12-03T04:49:32.090Z,4.80
2022-12-03T04:52:18.439Z,4.70
2022-12-03T04:55:05.838Z,4.70
2022-12-03T04:57:51.639Z,4.80
2022-12-03T05:00:37.311Z,4.90
2022-12-03T05:03:23.165Z,5.00
2022-12-03T05:06:08.838Z,5.10
2022-12-03T05:08:54.621Z,4.90
2022-12-03T05:11:42.085Z,4.50
2022-12-03T05:14:27.356Z,4.20
2022-12-03T05:17:12.957Z,4.30
2022-12-03T05:20:17.485Z,4.40
2022-12-03T05:23:03.142Z,4.30
2022-12-03T05:25:48.589Z,4.10
2022-12-03T05:28:35.803Z,4.30
2022-12-03T05:31:21.206Z,4.60
2022-12-03T05:34:06.796Z,4.40
2022-12-03T05:36:52.416Z,4.60
2022-12-03T05:39:38.180Z,4.50
2022-12-03T05:42:42.653Z,4.00
2022-12-03T05:45:30.333Z,3.80
2022-12-03T05:48:16.392Z,4.00
2022-12-03T05:51:02.347Z,4.30
2022-12-03T05:53:47.845Z,4.40
2022-12-03T05:56:33.327Z,4.30
2022-12-03T05:59:18.949Z,4.10
2022-12-03T06:02:06.193Z,4.30
2022-12-03T06:04:52.338Z,4.00
2022-12-03T06:07:38.333Z,4.20
2022-12-03T06:10:24.605Z,4.30
2022-12-03T06:13:09.935Z,4.60
2022-12-03T06:15:55.649Z,4.70
2022-12-03T06:18:42.559Z,4.30
2022-12-03T06:21:27.944Z,3.70
2022-12-03T06:24:13.506Z,3.60
2022-12-03T06:26:59.286Z,3.90
2022-12-03T06:29:45.092Z,3.80
2022-12-03T06:32:30.731Z,4.00
2022-12-03T06:35:17.856Z,3.90
2022-12-03T06:38:03.710Z,4.30
2022-12-03T06:40:48.985Z,4.30
2022-12-03T06:43:34.691Z,4.40
2022-12-03T06:46:23.272Z,4.10
2022-12-03T06:49:09.301Z,4.10
2022-12-03T06:51:56.421Z,4.00
2022-12-03T06:54:41.900Z,4.40
2022-12-03T06:57:27.898Z,4.70
2022-12-03T07:00:14.225Z,4.70
2022-12-03T07:03:00.206Z,4.40
2022-12-03T07:05:46.330Z,4.40
2022-12-03T07:08:33.269Z,3.90
2022-12-03T07:11:39.986Z,4.10
2022-12-03T07:14:25.582Z,4.60
2022-12-03T07:17:11.411Z,4.50
2022-12-03T07:20:00.379Z,3.80
2022-12-03T07:22:45.925Z,3.80
2022-12-03T07:25:33.514Z,3.70
2022-12-03T07:28:18.947Z,3.80
2022-12-03T07:31:05.571Z,3.50
2022-12-03T07:33:51.251Z,3.60
2022-12-03T07:36:36.813Z,3.80
2022-12-03T07:39:22.606Z,4.00
2022-12-03T07:42:10.259Z,4.30
2022-12-03T07:44:55.937Z,4.10
2022-12-03T07:47:41.458Z,4.20
2022-12-03T07:50:28.374Z,4.10
2022-12-03T07:53:13.738Z,3.90
2022-12-03T07:55:59.491Z,3.90
2022-12-03T07:58:46.724Z,4.00
2022-12-03T08:01:32.496Z,3.90
2022-12-03T08:04:19.188Z,3.80
2022-12-03T08:07:05.030Z,3.50
2022-12-03T08:09:50.945Z,3.40
2022-12-03T08:12:40.754Z,3.60
2022-12-03T08:15:32.215Z,3.70
2022-12-03T08:18:22.011Z,3.70
2022-12-03T08:21:10.519Z,3.60
2022-12-03T08:23:56.299Z,3.40
2022-12-03T08:26:42.037Z,3.40
2022-12-03T08:29:27.437Z,3.30
2022-12-03T08:32:14.579Z,3.50
2022-12-03T08:35:00.746Z,3.10
2022-12-03T08:37:46.029Z,3.30
2022-12-03T08:40:34.651Z,3.80
2022-12-03T08:43:21.492Z,4.00
2022-12-03T08:46:11.372Z,4.20
2022-12-03T08:48:59.668Z,4.10
2022-12-03T08:51:45.812Z,4.10
2022-12-03T08:54:31.481Z,3.80
2022-12-03T08:57:25.614Z,3.40
2022-12-03T09:00:18.136Z,3.30
2022-12-03T09:03:05.240Z,3.60
2022-12-03T09:05:52.191Z,4.00
2022-12-03T09:08:37.724Z,4.30
2022-12-03T09:11:23.948Z,4.50
2022-12-03T09:14:13.702Z,4.50
2022-12-03T09:17:02.651Z,4.50
2022-12-03T09:19:48.545Z,4.50
2022-12-03T09:22:35.642Z,4.40
2022-12-03T09:25:21.141Z,4.40
2022-12-03T09:28:06.861Z,4.40
2022-12-03T09:30:52.520Z,4.60
2022-12-03T09:33:38.555Z,4.50
2022-12-03T09:36:24.199Z,4.40
2022-12-03T09:39:10.927Z,4.60
2022-12-03T09:41:56.800Z,4.50
2022-12-03T09:44:42.397Z,4.60
2022-12-03T09:47:29.372Z,4.50
2022-12-03T09:50:16.074Z,4.60
2022-12-03T09:53:03.614Z,4.80
2022-12-03T09:55:50.941Z,4.70
2022-12-03T09:58:36.278Z,4.50
2022-12-03T10:01:21.929Z,4.20
2022-12-03T10:04:07.811Z,3.90
2022-12-03T10:06:53.404Z,3.90
2022-12-03T10:09:39.044Z,3.80
2022-12-03T10:12:26.345Z,3.90
2022-12-03T10:15:13.180Z,4.00
2022-12-03T10:17:59.064Z,4.20
2022-12-03T10:20:44.692Z,4.40
2022-12-03T10:23:30.973Z,4.60
2022-12-03T10:26:17.009Z,4.40
2022-12-03T10:29:11.617Z,4.30
2022-12-03T10:31:58.000Z,4.20
2022-12-03T10:34:46.122Z,4.50
2022-12-03T10:37:31.734Z,4.40
2022-12-03T10:40:23.901Z,4.20
2022-12-03T10:43:12.979Z,4.40
2022-12-03T10:46:12.359Z,4.50
2022-12-03T10:49:07.770Z,4.50
2022-12-03T10:51:53.133Z,4.50
2022-12-03T10:54:38.820Z,4.40
2022-12-03T10:57:24.659Z,4.00
2022-12-03T11:00:14.845Z,4.00
2022-12-03T11:03:01.900Z,4.00
2022-12-03T11:05:47.954Z,4.00
2022-12-03T11:08:34.818Z,4.40
2022-12-03T11:11:21.108Z,4.50
2022-12-03T11:14:06.598Z,4.50
2022-12-03T11:17:07.000Z,4.60
2022-12-03T11:19:53.976Z,4.30
2022-12-03T11:22:41.688Z,3.90
2022-12-03T11:25:37.206Z,3.80
2022-12-03T11:28:33.505Z,3.70
2022-12-03T11:31:36.378Z,3.90
2022-12-03T11:34:49.167Z,4.10
2022-12-03T11:37:36.796Z,4.30
2022-12-03T11:40:26.922Z,3.80
2022-12-03T11:43:12.464Z,3.60
2022-12-03T11:46:07.742Z,3.70
2022-12-03T11:48:54.289Z,3.90
2022-12-03T11:51:43.633Z,3.90
2022-12-03T11:54:34.709Z,4.00
2022-12-03T11:57:25.493Z,3.70
2022-12-03T12:00:19.795Z,4.00
2022-12-03T12:03:05.447Z,4.30
2022-12-03T12:06:01.839Z,4.60
2022-12-03T12:08:55.724Z,4.60
2022-12-03T12:11:43.927Z,4.20
2022-12-03T12:14:29.674Z,3.70
2022-12-03T12:17:34.780Z,3.40
2022-12-03T12:20:25.674Z,3.20
2022-12-03T12:23:21.924Z,3.30
2022-12-03T12:26:08.406Z,2.90
2022-12-03T12:28:55.598Z,3.00
2022-12-03T12:31:41.419Z,3.10
2022-12-03T12:34:26.810Z,3.40
2022-12-03T12:37:13.146Z,3.50
2022-12-03T12:39:58.847Z,3.90
2022-12-03T12:42:48.839Z,4.10
2022-12-03T12:45:36.939Z,4.00
2022-12-03T12:48:24.378Z,4.00
2022-12-03T12:51:11.236Z,3.50
2022-12-03T12:53:57.216Z,3.80
2022-12-03T12:56:43.779Z,3.30
2022-12-03T12:59:29.463Z,3.10
2022-12-03T13:02:34.289Z,3.30
2022-12-03T13:05:19.904Z,3.30
2022-12-03T13:08:16.250Z,4.00
2022-12-03T13:11:02.179Z,4.10
2022-12-03T13:13:47.894Z,3.20
2022-12-03T13:16:36.787Z,2.80
2022-12-03T13:19:25.695Z,3.20
2022-12-03T13:22:12.797Z,3.10
2022-12-03T13:25:03.376Z,3.30
2022-12-03T13:28:01.096Z,3.50
2022-12-03T13:30:49.744Z,3.60
2022-12-03T13:33:35.334Z,3.10
2022-12-03T13:36:26.878Z,3.00
2022-12-03T13:39:16.984Z,2.80
2022-12-03T13:42:31.719Z,3.10
2022-12-03T13:45:38.583Z,3.10
2022-12-03T13:48:24.870Z,3.00
2022-12-03T13:51:14.945Z,2.90
2022-12-03T13:54:02.975Z,3.10
2022-12-03T13:56:49.082Z,3.40
2022-12-03T13:59:34.908Z,3.70
2022-12-03T14:02:20.735Z,4.00
2022-12-03T14:05:06.600Z,4.30
2022-12-03T14:07:52.242Z,4.40
2022-12-03T14:10:39.396Z,4.00
2022-12-03T14:13:25.251Z,4.20
2022-12-03T14:16:10.771Z,4.10
2022-12-03T14:18:56.416Z,3.70
2022-12-03T14:21:44.106Z,3.40
2022-12-03T14:24:29.675Z,3.60
2022-12-03T14:27:16.650Z,3.40
2022-12-03T14:30:02.300Z,2.70
2022-12-03T14:32:47.850Z,2.80
2022-12-03T14:35:33.444Z,2.70
2022-12-03T14:38:19.003Z,2.90
2022-12-03T14:41:04.701Z,3.20
2022-12-03T14:43:51.920Z,3.70
2022-12-03T14:46:37.488Z,3.30
2022-12-03T14:49:23.142Z,2.80
2022-12-03T14:52:12.457Z,2.90
2022-12-03T14:54:58.124Z,2.70
2022-12-03T14:57:43.875Z,3.00
2022-12-03T15:00:31.019Z,2.90
2022-12-03T15:03:16.726Z,3.20
2022-12-03T15:06:02.433Z,3.00
2022-12-03T15:08:48.152Z,3.30
2022-12-03T15:11:33.942Z,3.50
2022-12-03T15:14:19.425Z,3.40
2022-12-03T15:17:06.664Z,3.30
2022-12-03T15:19:52.941Z,3.70
2022-12-03T15:22:38.886Z,3.50
2022-12-03T15:25:25.646Z,2.90
2022-12-03T15:28:11.036Z,2.80
2022-12-03T15:30:56.693Z,2.70
2022-12-03T15:33:43.814Z,2.50
2022-12-03T15:36:29.181Z,2.40
2022-12-03T15:39:15.783Z,2.70
2022-12-03T15:42:01.475Z,2.60
2022-12-03T15:44:47.130Z,2.40
2022-12-03T15:47:33.717Z,2.80
2022-12-03T15:50:20.974Z,2.70
2022-12-03T15:53:06.684Z,2.80
2022-12-03T15:55:52.287Z,2.90
2022-12-03T15:58:37.962Z,3.30
2022-12-03T16:01:23.857Z,3.40
2022-12-03T16:04:09.403Z,3.50
2022-12-03T16:06:56.437Z,3.30
2022-12-03T16:09:41.891Z,3.00
2022-12-03T16:12:27.874Z,3.10
2022-12-03T16:15:13.155Z,3.10
2022-12-03T16:17:59.050Z,3.00
2022-12-03T16:20:44.245Z,2.50
2022-12-03T16:23:31.354Z,2.40
2022-12-03T16:26:16.802Z,2.40
2022-12-03T16:29:02.368Z,2.30
2022-12-03T16:31:48.328Z,2.50
2022-12-03T16:34:34.148Z,2.50
2022-12-03T16:37:19.690Z,3.00
2022-12-03T16:40:11.757Z,3.00
2022-12-03T16:42:57.037Z,2.80
2022-12-03T16:45:42.750Z,2.40
2022-12-03T16:48:28.680Z,2.00
2022-12-03T16:51:19.497Z,2.30
2022-12-03T16:54:05.284Z,2.10
2022-12-03T16:56:52.347Z,2.30
2022-12-03T16:59:37.899Z,2.50
2022-12-03T17:02:23.541Z,2.40
2022-12-03T17:05:09.223Z,2.20
2022-12-03T17:07:55.078Z,2.10
2022-12-03T17:10:40.880Z,2.50
2022-12-03T17:13:27.971Z,2.70
2022-12-03T17:16:13.725Z,2.80
2022-12-03T17:18:59.271Z,2.60
2022-12-03T17:21:44.869Z,2.50
2022-12-03T17:24:30.702Z,2.60
2022-12-03T17:27:17.445Z,2.40
2022-12-03T17:30:05.918Z,2.60
2022-12-03T17:32:51.191Z,3.00
2022-12-03T17:35:36.914Z,3.00
2022-12-03T17:38:22.760Z,3.10
2022-12-03T17:41:08.318Z,3.30
2022-12-03T17:43:53.914Z,3.20
2022-12-03T17:46:41.472Z,2.60
2022-12-03T17:49:31.481Z,2.50
2022-12-03T17:52:17.410Z,2.60
2022-12-03T17:55:15.723Z,2.60
2022-12-03T17:58:03.576Z,2.40
2022-12-03T18:00:49.175Z,2.80
2022-12-03T18:03:36.679Z,2.80
2022-12-03T18:06:23.918Z,2.40
2022-12-03T18:09:11.148Z,2.50
2022-12-03T18:11:56.849Z,2.80
2022-12-03T18:14:42.362Z,2.50
2022-12-03T18:17:28.098Z,2.50
2022-12-03T18:20:15.321Z,2.30
2022-12-03T18:23:01.124Z,2.30
2022-12-03T18:25:46.544Z,2.60
2022-12-03T18:28:32.240Z,2.40
2022-12-03T18:31:19.580Z,2.80
2022-12-03T18:34:04.992Z,2.80
2022-12-03T18:36:52.448Z,2.70
2022-12-03T18:39:38.505Z,2.80
2022-12-03T18:42:24.469Z,2.50
2022-12-03T18:45:11.290Z,2.50
2022-12-03T18:47:57.233Z,2.20
2022-12-03T18:50:42.967Z,2.30
2022-12-03T18:53:30.222Z,2.30
2022-12-03T18:56:15.973Z,2.70
2022-12-03T18:59:02.709Z,2.90
2022-12-03T19:01:48.518Z,2.40
2022-12-03T19:04:34.087Z,2.50
2022-12-03T19:07:19.865Z,2.40
2022-12-03T19:10:08.027Z,2.40
2022-12-03T19:12:53.301Z,2.10
2022-12-03T19:15:39.717Z,2.30
2022-12-03T19:18:25.285Z,2.60
2022-12-03T19:21:11.818Z,2.60
2022-12-03T19:24:23.180Z,2.50
2022-12-03T19:27:04.693Z,2.80
2022-12-03T19:29:51.064Z,2.40
2022-12-03T19:32:36.512Z,2.20
2022-12-03T19:35:22.286Z,2.00
2022-12-03T19:38:08.110Z,2.30
2022-12-03T19:41:00.343Z,2.60
2022-12-03T19:43:50.254Z,2.80
2022-12-03T19:46:36.173Z,2.70
2022-12-03T19:49:22.361Z,2.80
2022-12-03T19:52:08.223Z,2.70
2022-12-03T19:54:53.964Z,2.90
2022-12-03T19:57:39.600Z,2.60
2022-12-03T20:00:26.697Z,2.60
2022-12-03T20:03:12.318Z,2.80
2022-12-03T20:05:59.808Z,2.90
2022-12-03T20:08:45.360Z,2.70
2022-12-03T20:11:31.845Z,2.50
2022-12-03T20:14:18.173Z,2.30
2022-12-03T20:17:05.346Z,2.50
2022-12-03T20:19:51.536Z,2.70
2022-12-03T20:22:37.350Z,2.70
2022-12-03T20:25:23.057Z,2.70
2022-12-03T20:28:08.619Z,2.80
2022-12-03T20:30:57.864Z,3.10
2022-12-03T20:33:46.540Z,2.40
2022-12-03T20:36:32.407Z,2.80
2022-12-03T20:39:17.692Z,2.70
2022-12-03T20:42:03.761Z,2.90
2022-12-03T20:44:51.396Z,2.70
2022-12-03T20:47:36.979Z,2.20
2022-12-03T20:50:24.123Z,2.00
2022-12-03T20:53:24.216Z,2.30
2022-12-03T20:56:11.523Z,2.20
2022-12-03T20:58:59.525Z,2.10
2022-12-03T21:01:45.475Z,2.30
2022-12-03T21:04:31.148Z,2.10
2022-12-03T21:07:18.686Z,2.40
2022-12-03T21:10:05.125Z,2.80
2022-12-03T21:12:51.065Z,3.10
2022-12-03T21:15:36.596Z,3.40
2022-12-03T21:18:22.118Z,3.70
2022-12-03T21:21:08.616Z,3.50
2022-12-03T21:23:57.109Z,3.20
2022-12-03T21:26:42.798Z,3.00
2022-12-03T21:29:29.051Z,3.10
2022-12-03T21:32:15.072Z,3.10
2022-12-03T21:35:00.928Z,2.80
2022-12-03T21:37:47.234Z,2.70
2022-12-03T21:40:34.684Z,2.70
2022-12-03T21:43:23.500Z,2.10
2022-12-03T21:47:11.700Z,2.10
2022-12-03T21:49:24.480Z,1.80
2022-12-03T21:52:14.310Z,1.70
2022-12-03T21:55:02.726Z,1.80
2022-12-03T21:57:51.560Z,1.40
2022-12-03T22:00:42.626Z,1.50
2022-12-03T22:03:28.935Z,2.00
2022-12-03T22:06:15.760Z,2.00
2022-12-03T22:09:02.409Z,2.30
2022-12-03T22:11:48.778Z,2.60
2022-12-03T22:14:42.694Z,2.70
2022-12-03T22:17:35.201Z,3.10
2022-12-03T22:20:28.471Z,2.90
2022-12-03T22:23:21.298Z,2.80
2022-12-03T22:26:17.368Z,2.50
2022-12-03T22:29:07.244Z,2.30
2022-12-03T22:31:53.741Z,2.20
2022-12-03T22:34:45.652Z,2.50
2022-12-03T22:37:33.522Z,2.80
2022-12-03T22:40:22.441Z,3.00
2022-12-03T22:43:11.449Z,2.10
2022-12-03T22:46:01.555Z,2.30
2022-12-03T22:48:50.495Z,2.80
2022-12-03T22:51:37.747Z,2.50
2022-12-03T22:54:24.309Z,2.60
2022-12-03T22:57:10.879Z,2.20
2022-12-03T22:59:57.951Z,2.00
2022-12-03T23:02:44.212Z,2.30
2022-12-03T23:05:34.699Z,2.00
2022-12-03T23:08:23.429Z,1.70
2022-12-03T23:11:09.278Z,2.00
2022-12-03T23:13:56.272Z,2.40
2022-12-03T23:16:42.016Z,2.20
2022-12-03T23:19:27.802Z,2.30
2022-12-03T23:22:13.664Z,2.40
2022-12-03T23:25:00.870Z,2.40
2022-12-03T23:27:47.213Z,2.50
2022-12-03T23:30:36.152Z,2.70
2022-12-03T23:33:21.750Z,2.60
2022-12-03T23:36:07.956Z,2.40
2022-12-03T23:38:54.704Z,2.40
2022-12-03T23:41:41.612Z,2.50
2022-12-03T23:44:27.749Z,2.80
2022-12-03T23:47:13.486Z,3.00
2022-12-03T23:49:59.123Z,2.90
2022-12-03T23:52:44.807Z,2.70
2022-12-03T23:55:30.279Z,2.70
2022-12-03T23:58:17.345Z,2.70
